sensor_id;sensor_type;location;lat;lon;timestamp;pressure;altitude;pressure_sealevel;temperature;humidity
29163;BME280;20331;53.144;8.208;2023-08-06T00:00:27;100797.75;;;15.82;100.00
29163;BME280;20331;53.144;8.208;2023-08-06T00:10:48;100800.31;;;15.84;100.00
29163;BME280;20331;53.144;8.208;2023-08-06T00:21:10;100785.72;;;15.80;100.00
29163;BME280;20331;53.144;8.208;2023-08-06T00:31:33;100778.19;;;15.74;100.00
29163;BME280;20331;53.144;8.208;2023-08-06T00:41:55;100775.41;;;15.77;100.00
29163;BME280;20331;53.144;8.208;2023-08-06T00:52:16;100782.25;;;15.79;100.00
29163;BME280;20331;53.144;8.208;2023-08-06T01:02:38;100784.94;;;15.78;100.00
29163;BME280;20331;53.144;8.208;2023-08-06T01:23:24;100752.78;;;15.77;100.00
29163;BME280;20331;53.144;8.208;2023-08-06T01:33:46;100756.38;;;15.75;100.00
29163;BME280;20331;53.144;8.208;2023-08-06T01:44:10;100738.88;;;15.77;100.00
29163;BME280;20331;53.144;8.208;2023-08-06T01:54:31;100731.25;;;15.74;100.00
29163;BME280;20331;53.144;8.208;2023-08-06T02:04:52;100727.88;;;15.72;100.00
29163;BME280;20331;53.144;8.208;2023-08-06T02:15:14;100719.13;;;15.73;100.00
29163;BME280;20331;53.144;8.208;2023-08-06T02:25:35;100715.75;;;15.71;100.00
29163;BME280;20331;53.144;8.208;2023-08-06T02:35:59;100714.06;;;15.70;100.00
29163;BME280;20331;53.144;8.208;2023-08-06T02:46:21;100705.31;;;15.71;100.00
29163;BME280;20331;53.144;8.208;2023-08-06T02:56:43;100702.09;;;15.66;100.00
29163;BME280;20331;53.144;8.208;2023-08-06T03:07:06;100676.16;;;15.63;100.00
29163;BME280;20331;53.144;8.208;2023-08-06T03:17:27;100667.50;;;15.62;100.00
29163;BME280;20331;53.144;8.208;2023-08-06T03:27:49;100664.38;;;15.56;100.00
29163;BME280;20331;53.144;8.208;2023-08-06T03:38:10;100643.69;;;15.53;100.00
29163;BME280;20331;53.144;8.208;2023-08-06T03:48:31;100634.25;;;15.50;100.00
29163;BME280;20331;53.144;8.208;2023-08-06T03:58:53;100633.75;;;15.44;100.00
29163;BME280;20331;53.144;8.208;2023-08-06T04:09:14;100627.50;;;15.46;100.00
29163;BME280;20331;53.144;8.208;2023-08-06T04:19:36;100638.13;;;15.43;100.00
29163;BME280;20331;53.144;8.208;2023-08-06T04:29:57;100642.31;;;15.46;100.00
29163;BME280;20331;53.144;8.208;2023-08-06T04:40:19;100642.47;;;15.43;100.00
29163;BME280;20331;53.144;8.208;2023-08-06T04:50:47;100635.69;;;15.39;100.00
29163;BME280;20331;53.144;8.208;2023-08-06T05:01:09;100642.75;;;15.37;100.00
29163;BME280;20331;53.144;8.208;2023-08-06T05:11:30;100644.31;;;15.41;100.00
29163;BME280;20331;53.144;8.208;2023-08-06T05:21:52;100641.22;;;15.50;100.00
29163;BME280;20331;53.144;8.208;2023-08-06T05:32:13;100640.91;;;15.56;100.00
29163;BME280;20331;53.144;8.208;2023-08-06T05:42:35;100642.25;;;15.63;100.00
29163;BME280;20331;53.144;8.208;2023-08-06T05:52:56;100649.91;;;15.66;100.00
29163;BME280;20331;53.144;8.208;2023-08-06T06:03:22;100653.28;;;15.68;100.00
29163;BME280;20331;53.144;8.208;2023-08-06T06:13:43;100652.63;;;15.80;100.00
29163;BME280;20331;53.144;8.208;2023-08-06T06:24:05;100646.38;;;15.82;100.00
29163;BME280;20331;53.144;8.208;2023-08-06T06:34:27;100649.63;;;15.87;100.00
29163;BME280;20331;53.144;8.208;2023-08-06T06:44:48;100655.31;;;15.94;100.00
29163;BME280;20331;53.144;8.208;2023-08-06T06:55:10;100649.19;;;15.95;100.00
29163;BME280;20331;53.144;8.208;2023-08-06T07:05:31;100662.91;;;16.14;100.00
29163;BME280;20331;53.144;8.208;2023-08-06T07:15:54;100663.56;;;16.18;100.00
29163;BME280;20331;53.144;8.208;2023-08-06T07:26:16;100648.25;;;16.27;100.00
29163;BME280;20331;53.144;8.208;2023-08-06T07:36:38;100654.59;;;16.37;100.00
29163;BME280;20331;53.144;8.208;2023-08-06T07:46:59;100672.34;;;16.48;100.00
29163;BME280;20331;53.144;8.208;2023-08-06T07:57:21;100667.03;;;16.79;100.00
29163;BME280;20331;53.144;8.208;2023-08-06T08:07:42;100662.16;;;17.02;100.00
29163;BME280;20331;53.144;8.208;2023-08-06T08:18:04;100663.44;;;16.95;100.00
29163;BME280;20331;53.144;8.208;2023-08-06T08:28:25;100648.88;;;17.05;100.00
29163;BME280;20331;53.144;8.208;2023-08-06T08:38:47;100652.91;;;17.11;100.00
29163;BME280;20331;53.144;8.208;2023-08-06T08:49:08;100625.53;;;17.17;100.00
29163;BME280;20331;53.144;8.208;2023-08-06T08:59:30;100625.19;;;17.37;100.00
29163;BME280;20331;53.144;8.208;2023-08-06T09:09:51;100627.09;;;17.49;100.00
29163;BME280;20331;53.144;8.208;2023-08-06T09:20:13;100621.16;;;17.73;99.74
29163;BME280;20331;53.144;8.208;2023-08-06T09:30:36;100606.63;;;17.96;98.06
29163;BME280;20331;53.144;8.208;2023-08-06T09:40:58;100621.16;;;18.14;97.19
29163;BME280;20331;53.144;8.208;2023-08-06T09:51:19;100624.22;;;18.47;91.75
29163;BME280;20331;53.144;8.208;2023-08-06T10:01:41;100623.22;;;18.62;92.67
29163;BME280;20331;53.144;8.208;2023-08-06T10:12:02;100613.16;;;18.81;92.61
29163;BME280;20331;53.144;8.208;2023-08-06T10:22:24;100619.50;;;19.04;91.07
29163;BME280;20331;53.144;8.208;2023-08-06T10:32:47;100609.84;;;19.42;88.50
29163;BME280;20331;53.144;8.208;2023-08-06T10:43:12;100609.50;;;19.59;87.51
29163;BME280;20331;53.144;8.208;2023-08-06T10:53:46;100600.97;;;19.56;87.68
29163;BME280;20331;53.144;8.208;2023-08-06T11:04:08;100584.75;;;19.98;86.50
29163;BME280;20331;53.144;8.208;2023-08-06T11:14:30;100586.66;;;20.32;83.99
29163;BME280;20331;53.144;8.208;2023-08-06T11:24:52;100577.25;;;20.52;84.64
29163;BME280;20331;53.144;8.208;2023-08-06T11:35:15;100576.63;;;20.37;84.91
29163;BME280;20331;53.144;8.208;2023-08-06T11:45:36;100585.03;;;20.53;83.34
29163;BME280;20331;53.144;8.208;2023-08-06T11:55:58;100578.97;;;20.29;83.04
29163;BME280;20331;53.144;8.208;2023-08-06T12:06:19;100584.03;;;20.78;81.09
29163;BME280;20331;53.144;8.208;2023-08-06T12:16:41;100565.56;;;21.02;79.54
29163;BME280;20331;53.144;8.208;2023-08-06T12:27:02;100555.75;;;21.15;80.39
29163;BME280;20331;53.144;8.208;2023-08-06T12:37:24;100563.84;;;20.78;78.14
29163;BME280;20331;53.144;8.208;2023-08-06T12:47:46;100557.06;;;20.52;79.48
29163;BME280;20331;53.144;8.208;2023-08-06T12:58:08;100550.41;;;20.59;80.66
29163;BME280;20331;53.144;8.208;2023-08-06T13:08:29;100542.03;;;20.65;77.52
29163;BME280;20331;53.144;8.208;2023-08-06T13:18:51;100562.09;;;20.55;80.70
29163;BME280;20331;53.144;8.208;2023-08-06T13:29:12;100559.94;;;20.60;80.60
29163;BME280;20331;53.144;8.208;2023-08-06T13:39:34;100558.06;;;20.73;78.78
29163;BME280;20331;53.144;8.208;2023-08-06T13:49:55;100562.81;;;20.57;79.13
29163;BME280;20331;53.144;8.208;2023-08-06T14:00:17;100557.53;;;20.46;80.60
29163;BME280;20331;53.144;8.208;2023-08-06T14:10:38;100565.44;;;20.57;81.87
29163;BME280;20331;53.144;8.208;2023-08-06T14:21:00;100565.81;;;20.53;81.80
29163;BME280;20331;53.144;8.208;2023-08-06T14:31:21;100573.22;;;20.59;81.28
29163;BME280;20331;53.144;8.208;2023-08-06T14:41:43;100577.41;;;20.61;79.72
29163;BME280;20331;53.144;8.208;2023-08-06T14:52:05;100568.38;;;20.87;80.04
29163;BME280;20331;53.144;8.208;2023-08-06T15:02:27;100582.00;;;20.81;79.83
29163;BME280;20331;53.144;8.208;2023-08-06T15:12:49;100587.50;;;20.78;81.13
29163;BME280;20331;53.144;8.208;2023-08-06T15:23:10;100598.69;;;20.58;81.15
29163;BME280;20331;53.144;8.208;2023-08-06T15:33:32;100599.13;;;20.87;79.79
29163;BME280;20331;53.144;8.208;2023-08-06T15:43:53;100612.88;;;20.90;78.78
29163;BME280;20331;53.144;8.208;2023-08-06T15:54:15;100621.16;;;20.62;80.01
29163;BME280;20331;53.144;8.208;2023-08-06T16:04:36;100632.59;;;20.85;76.90
29163;BME280;20331;53.144;8.208;2023-08-06T16:14:58;100629.78;;;21.10;75.40
29163;BME280;20331;53.144;8.208;2023-08-06T16:25:19;100637.81;;;21.09;76.75
29163;BME280;20331;53.144;8.208;2023-08-06T16:35:41;100647.91;;;21.37;77.10
29163;BME280;20331;53.144;8.208;2023-08-06T16:46:02;100654.31;;;20.99;78.02
29163;BME280;20331;53.144;8.208;2023-08-06T16:56:24;100659.88;;;21.30;78.84
29163;BME280;20331;53.144;8.208;2023-08-06T17:06:45;100669.06;;;21.13;79.14
29163;BME280;20331;53.144;8.208;2023-08-06T17:17:08;100670.34;;;20.73;80.21
29163;BME280;20331;53.144;8.208;2023-08-06T17:27:30;100681.81;;;20.48;81.08
29163;BME280;20331;53.144;8.208;2023-08-06T17:37:52;100698.50;;;20.36;81.90
29163;BME280;20331;53.144;8.208;2023-08-06T17:48:14;100705.25;;;20.15;82.30
29163;BME280;20331;53.144;8.208;2023-08-06T17:58:36;100709.09;;;19.98;82.29
29163;BME280;20331;53.144;8.208;2023-08-06T18:08:58;100709.13;;;19.86;81.26
29163;BME280;20331;53.144;8.208;2023-08-06T18:19:19;100728.38;;;19.74;79.26
29163;BME280;20331;53.144;8.208;2023-08-06T18:29:41;100732.56;;;19.64;81.13
29163;BME280;20331;53.144;8.208;2023-08-06T18:40:03;100743.59;;;19.56;81.54
29163;BME280;20331;53.144;8.208;2023-08-06T18:50:24;100759.22;;;19.58;81.39
29163;BME280;20331;53.144;8.208;2023-08-06T19:00:46;100753.97;;;19.45;82.14
29163;BME280;20331;53.144;8.208;2023-08-06T19:11:08;100769.31;;;19.39;82.28
29163;BME280;20331;53.144;8.208;2023-08-06T19:21:29;100765.69;;;19.27;83.18
29163;BME280;20331;53.144;8.208;2023-08-06T19:31:51;100777.41;;;19.09;84.75
29163;BME280;20331;53.144;8.208;2023-08-06T19:42:15;100768.88;;;18.93;84.32
29163;BME280;20331;53.144;8.208;2023-08-06T19:52:37;100764.88;;;18.87;84.06
29163;BME280;20331;53.144;8.208;2023-08-06T20:02:58;100763.59;;;18.80;84.52
29163;BME280;20331;53.144;8.208;2023-08-06T20:13:20;100759.13;;;18.68;84.25
29163;BME280;20331;53.144;8.208;2023-08-06T20:23:41;100756.50;;;18.68;84.50
29163;BME280;20331;53.144;8.208;2023-08-06T20:34:03;100761.69;;;18.56;85.19
29163;BME280;20331;53.144;8.208;2023-08-06T20:44:24;100768.72;;;18.55;85.60
29163;BME280;20331;53.144;8.208;2023-08-06T20:54:47;100778.09;;;18.45;86.04
29163;BME280;20331;53.144;8.208;2023-08-06T21:05:09;100783.03;;;18.36;86.24
29163;BME280;20331;53.144;8.208;2023-08-06T21:15:30;100800.00;;;18.30;86.56
29163;BME280;20331;53.144;8.208;2023-08-06T21:25:55;100809.75;;;18.14;86.78
29163;BME280;20331;53.144;8.208;2023-08-06T21:36:18;100805.91;;;18.05;88.23
29163;BME280;20331;53.144;8.208;2023-08-06T21:46:40;100809.66;;;18.01;88.62
29163;BME280;20331;53.144;8.208;2023-08-06T21:57:01;100822.84;;;18.00;89.57
29163;BME280;20331;53.144;8.208;2023-08-06T22:07:23;100830.97;;;17.95;93.14
29163;BME280;20331;53.144;8.208;2023-08-06T22:17:45;100842.53;;;17.77;97.48
29163;BME280;20331;53.144;8.208;2023-08-06T22:28:06;100828.78;;;17.60;97.89
29163;BME280;20331;53.144;8.208;2023-08-06T22:38:28;100827.78;;;17.47;97.22
29163;BME280;20331;53.144;8.208;2023-08-06T22:48:49;100835.75;;;17.30;96.54
29163;BME280;20331;53.144;8.208;2023-08-06T22:59:11;100824.31;;;17.17;97.28
29163;BME280;20331;53.144;8.208;2023-08-06T23:09:32;100827.44;;;17.07;99.15
29163;BME280;20331;53.144;8.208;2023-08-06T23:19:54;100825.34;;;16.98;98.37
29163;BME280;20331;53.144;8.208;2023-08-06T23:30:17;100825.78;;;16.91;98.60
29163;BME280;20331;53.144;8.208;2023-08-06T23:40:39;100825.81;;;16.75;95.88
29163;BME280;20331;53.144;8.208;2023-08-06T23:51:00;100836.34;;;16.58;96.18
